This is the latest recevied weather packets stored in our database for station/object OK2CME-6. If no packets are shown the sender has not sent any weather packets the latest 10 day(s).
| Time | Temp. | Humidity | Pressure | Rain* | Wind** | Luminosity | Snow |
|---|---|---|---|---|---|---|---|
| 1777847299 | 13.33° C | 46% | 1020 hPa | 0 mm | - | 0 W/m² | - |
| 1777846099 | 13.33° C | 46% | 1019.8 hPa | 0 mm | - | 0 W/m² | - |
| 1777844899 | 13.33° C | 47% | 1019.7 hPa | 0 mm | - | 0 W/m² | - |
| 1777843699 | 13.33° C | 47% | 1019.7 hPa | 0 mm | - | 0 W/m² | - |
| 1777842499 | 13.89° C | 47% | 1020 hPa | 0 mm | - | 0 W/m² | - |
| 1777841299 | 14.44° C | 46% | 1019.9 hPa | 0 mm | - | 0 W/m² | - |
| 1777840098 | 14.44° C | 48% | 1020.1 hPa | 0 mm | - | 0 W/m² | - |
| 1777838898 | 14.44° C | 50% | 1020.4 hPa | 0 mm | - | 0 W/m² | - |
| 1777837698 | 14.44° C | 52% | 1020.3 hPa | 0 mm | - | 0 W/m² | - |
| 1777836498 | 14.44° C | 52% | 1020.1 hPa | 0 mm | - | 0 W/m² | - |
| 1777835298 | 15.56° C | 50% | 1020.1 hPa | 0 mm | - | 0 W/m² | - |
| 1777834098 | 15.56° C | 49% | 1020.2 hPa | 0 mm | - | 0 W/m² | - |
| 1777832897 | 16.67° C | 47% | 1020 hPa | 0 mm | - | 3 W/m² | - |
| 1777831697 | 17.78° C | 44% | 1020 hPa | 0 mm | - | 12 W/m² | - |
| 1777830497 | 18.33° C | 42% | 1019.7 hPa | 0 mm | - | 21 W/m² | - |
| 1777829297 | 18.89° C | 40% | 1019.9 hPa | 0 mm | - | 31 W/m² | - |
| 1777828097 | 19.44° C | 40% | 1020.1 hPa | 0 mm | - | 40 W/m² | - |
| 1777826897 | 19.44° C | 39% | 1020 hPa | 0 mm | - | 58 W/m² | - |
| 1777825697 | 20° C | 37% | 1020.1 hPa | 0 mm | - | 110 W/m² | - |
| 1777824497 | 20.56° C | 38% | 1020.4 hPa | 0 mm | - | 163 W/m² | - |
| 1777823297 | 20.56° C | 37% | 1020.5 hPa | 0 mm | - | 44 W/m² | - |
| 1777822097 | 20.56° C | 38% | 1020.2 hPa | 0 mm | - | 275 W/m² | - |
| 1777820897 | 20.56° C | 38% | 1020.5 hPa | 0 mm | - | 320 W/m² | - |
| 1777819697 | 21.11° C | 37% | 1020.7 hPa | 0 mm | - | 370 W/m² | - |
| 1777818497 | 20.56° C | 38% | 1020.5 hPa | 0 mm | - | 414 W/m² | - |
* Rain latest hour (hover to see other rain measurements)
** Current wind speed in m/s (hover to see current wind gust speed)